Paonia, CO (81428)

4:36 AM MDT on September 04, 2015 (GMT -0600)
Lamborn Mesa | | Change Station
CLOSE
Current Station
Personal Weather Station
Location: Paonia, CO
Elevation: 5900 ft
Nearby Weather Stations

Elev 5900 ft 38.86 °N, 107.59 °W | Updated 4 minutes ago

Partly Cloudy
Partly Cloudy
56.1 °F
Feels Like 56.1 °F
N
2.0
Wind Variable Wind from NNW
Gusts 7.2 mph

Today
High -- | Low -- °F
--% Chance of Precip.
Yesterday
High -- | Low -- °F
Precip. -- in
6:41 AM 7:36 PM
Waning Gibbous, 61% visible
Pressure 30.05 in
Visibility 7.0 miles
Clouds Mostly Cloudy 11000 ft
Dew Point 47 °F
Humidity 72%
Rainfall Not available.
Snow Depth Not available.
UV 0 out of 12
Pollen 8.00 out of 12
Air Quality Not available.
Flu Activity Not available.
METAR KAJZ 041015Z AUTO 08005KT 7SM BKN110 16/10 A3005 RMK AO2 T01620098
Pressure 30.05 in
Visibility 7.0 miles
Clouds Mostly Cloudy 11000 ft
Dew Point 47 °F
Humidity 72%
Rainfall Not available.
Snow Depth Not available.
UV 0 out of 12
Pollen 8.00 out of 12
Air Quality Not available.
Flu Activity Not available.
METAR KAJZ 041015Z AUTO 08005KT 7SM BKN110 16/10 A3005 RMK AO2 T01620098

10-Day Weather Forecast

×

Almanac

Astronomy

Sep. 04, 2015 Rise Set
Actual Time
Civil Twilight
Nautical Twilight
Astronomical Twilight
Moon
Length of Visible Light
Length of Day
Tomorrow will be .
, % of the Moon is Illuminated

Today's Extremes

State Highs State Lows

Community

WunderPhotos

Upload Photos

1,852,146 photos uploaded!

WunderBlogs® & News

Nearby

Air Quality

  Air Quality AQ Index Pollutant
Not available.

Snow Depth

Station Depth Elevation

Earthquake Activity

City Distance Mag. Time & Date
Minimum magnitude displayed is 2.5.

Coastal Water Temperatures

Place Temperature

Stations

Nearby Weather Stations

Station Location Temp. Windchill Dew Point Humidity Wind Precip. Elev Updated Type